sensor_id;sensor_type;location;lat;lon;timestamp;pressure;altitude;pressure_sealevel;temperature;humidity
47240;BME280;32978;53.586;10.052;2024-03-22T00:04:37;101872.38;;;7.97;100.00
47240;BME280;32978;53.586;10.052;2024-03-22T00:09:32;101866.38;;;7.95;100.00
47240;BME280;32978;53.586;10.052;2024-03-22T00:14:29;101861.50;;;7.97;100.00
47240;BME280;32978;53.586;10.052;2024-03-22T00:19:24;101857.69;;;8.03;100.00
47240;BME280;32978;53.586;10.052;2024-03-22T00:24:20;101842.41;;;8.07;100.00
47240;BME280;32978;53.586;10.052;2024-03-22T00:29:15;101838.06;;;8.11;100.00
47240;BME280;32978;53.586;10.052;2024-03-22T00:34:11;101829.88;;;8.11;100.00
47240;BME280;32978;53.586;10.052;2024-03-22T00:39:06;101819.53;;;8.08;100.00
47240;BME280;32978;53.586;10.052;2024-03-22T00:44:03;101812.47;;;8.12;100.00
47240;BME280;32978;53.586;10.052;2024-03-22T00:48:58;101808.63;;;8.18;100.00
47240;BME280;32978;53.586;10.052;2024-03-22T00:53:54;101792.28;;;8.18;100.00
47240;BME280;32978;53.586;10.052;2024-03-22T00:58:49;101791.47;;;8.23;100.00
47240;BME280;32978;53.586;10.052;2024-03-22T01:03:45;101796.91;;;8.18;100.00
47240;BME280;32978;53.586;10.052;2024-03-22T01:08:40;101774.31;;;8.17;100.00
47240;BME280;32978;53.586;10.052;2024-03-22T01:13:36;101774.56;;;8.21;100.00
47240;BME280;32978;53.586;10.052;2024-03-22T01:18:31;101755.50;;;8.16;100.00
47240;BME280;32978;53.586;10.052;2024-03-22T01:23:27;101761.22;;;8.14;100.00
47240;BME280;32978;53.586;10.052;2024-03-22T01:28:23;101737.28;;;8.11;100.00
47240;BME280;32978;53.586;10.052;2024-03-22T01:33:18;101730.72;;;8.17;100.00
47240;BME280;32978;53.586;10.052;2024-03-22T01:38:14;101714.91;;;8.14;100.00
47240;BME280;32978;53.586;10.052;2024-03-22T01:43:09;101700.78;;;8.12;100.00
47240;BME280;32978;53.586;10.052;2024-03-22T01:48:06;101691.22;;;8.10;100.00
47240;BME280;32978;53.586;10.052;2024-03-22T01:53:03;101683.31;;;8.18;100.00
47240;BME280;32978;53.586;10.052;2024-03-22T01:57:59;101688.50;;;8.20;100.00
47240;BME280;32978;53.586;10.052;2024-03-22T02:02:54;101673.22;;;8.19;100.00
47240;BME280;32978;53.586;10.052;2024-03-22T02:07:50;101669.16;;;8.16;100.00
47240;BME280;32978;53.586;10.052;2024-03-22T02:12:45;101659.34;;;8.20;100.00
47240;BME280;32978;53.586;10.052;2024-03-22T02:17:41;101653.84;;;8.26;100.00
47240;BME280;32978;53.586;10.052;2024-03-22T02:22:37;101640.22;;;8.26;100.00
47240;BME280;32978;53.586;10.052;2024-03-22T02:27:33;101643.53;;;8.22;100.00
47240;BME280;32978;53.586;10.052;2024-03-22T02:32:28;101635.59;;;8.26;100.00
47240;BME280;32978;53.586;10.052;2024-03-22T02:37:24;101646.75;;;8.30;100.00
47240;BME280;32978;53.586;10.052;2024-03-22T02:42:20;101636.94;;;8.34;100.00
47240;BME280;32978;53.586;10.052;2024-03-22T02:47:15;101636.91;;;8.39;100.00
47240;BME280;32978;53.586;10.052;2024-03-22T02:52:11;101630.91;;;8.37;100.00
47240;BME280;32978;53.586;10.052;2024-03-22T02:57:06;101630.38;;;8.40;100.00
47240;BME280;32978;53.586;10.052;2024-03-22T03:02:02;101624.94;;;8.40;100.00
47240;BME280;32978;53.586;10.052;2024-03-22T03:06:57;101614.88;;;8.40;100.00
47240;BME280;32978;53.586;10.052;2024-03-22T03:11:53;101616.19;;;8.48;100.00
47240;BME280;32978;53.586;10.052;2024-03-22T03:16:48;101602.00;;;8.46;100.00
47240;BME280;32978;53.586;10.052;2024-03-22T03:21:44;101586.16;;;8.53;100.00
47240;BME280;32978;53.586;10.052;2024-03-22T03:26:40;101579.91;;;8.53;100.00
47240;BME280;32978;53.586;10.052;2024-03-22T03:31:36;101567.59;;;8.55;100.00
47240;BME280;32978;53.586;10.052;2024-03-22T03:36:31;101575.22;;;8.58;100.00
47240;BME280;32978;53.586;10.052;2024-03-22T03:41:28;101561.03;;;8.61;100.00
47240;BME280;32978;53.586;10.052;2024-03-22T03:46:23;101557.19;;;8.62;100.00
47240;BME280;32978;53.586;10.052;2024-03-22T03:51:19;101539.44;;;8.65;100.00
47240;BME280;32978;53.586;10.052;2024-03-22T03:56:14;101529.94;;;8.62;100.00
47240;BME280;32978;53.586;10.052;2024-03-22T04:01:10;101529.88;;;8.68;100.00
47240;BME280;32978;53.586;10.052;2024-03-22T04:06:05;101519.56;;;8.64;100.00
47240;BME280;32978;53.586;10.052;2024-03-22T04:11:01;101510.81;;;8.68;100.00
47240;BME280;32978;53.586;10.052;2024-03-22T04:15:59;101496.63;;;8.66;100.00
47240;BME280;32978;53.586;10.052;2024-03-22T04:20:55;101485.19;;;8.69;100.00
47240;BME280;32978;53.586;10.052;2024-03-22T04:26:01;101475.34;;;8.73;100.00
47240;BME280;32978;53.586;10.052;2024-03-22T04:31:02;101476.94;;;8.74;100.00
47240;BME280;32978;53.586;10.052;2024-03-22T04:35:59;101471.50;;;8.74;100.00
47240;BME280;32978;53.586;10.052;2024-03-22T04:40:56;101473.13;;;8.75;100.00
47240;BME280;32978;53.586;10.052;2024-03-22T04:45:52;101462.72;;;8.77;100.00
47240;BME280;32978;53.586;10.052;2024-03-22T04:50:48;101450.44;;;8.79;100.00
47240;BME280;32978;53.586;10.052;2024-03-22T04:55:45;101446.34;;;8.82;100.00
47240;BME280;32978;53.586;10.052;2024-03-22T05:00:41;101443.63;;;8.82;100.00
47240;BME280;32978;53.586;10.052;2024-03-22T05:05:37;101415.25;;;8.83;100.00
47240;BME280;32978;53.586;10.052;2024-03-22T05:10:34;101426.41;;;8.87;100.00
47240;BME280;32978;53.586;10.052;2024-03-22T05:15:29;101422.81;;;8.91;100.00
47240;BME280;32978;53.586;10.052;2024-03-22T05:20:25;101420.06;;;8.91;100.00
47240;BME280;32978;53.586;10.052;2024-03-22T05:25:21;101421.16;;;8.90;100.00
47240;BME280;32978;53.586;10.052;2024-03-22T05:30:17;101411.91;;;8.91;100.00
47240;BME280;32978;53.586;10.052;2024-03-22T05:35:13;101403.66;;;8.96;100.00
47240;BME280;32978;53.586;10.052;2024-03-22T05:40:09;101404.66;;;9.00;100.00
47240;BME280;32978;53.586;10.052;2024-03-22T05:45:05;101418.63;;;8.99;100.00
47240;BME280;32978;53.586;10.052;2024-03-22T05:50:02;101402.72;;;9.06;100.00
47240;BME280;32978;53.586;10.052;2024-03-22T05:54:58;101403.53;;;9.06;100.00
47240;BME280;32978;53.586;10.052;2024-03-22T05:59:53;101408.38;;;9.10;100.00
47240;BME280;32978;53.586;10.052;2024-03-22T06:04:49;101402.94;;;9.10;100.00
47240;BME280;32978;53.586;10.052;2024-03-22T06:09:44;101394.19;;;9.13;100.00
47240;BME280;32978;53.586;10.052;2024-03-22T06:14:43;101365.78;;;9.14;100.00
47240;BME280;32978;53.586;10.052;2024-03-22T06:19:39;101375.53;;;9.20;100.00
47240;BME280;32978;53.586;10.052;2024-03-22T06:24:35;101366.22;;;9.21;100.00
47240;BME280;32978;53.586;10.052;2024-03-22T06:29:31;101384.19;;;9.27;100.00
47240;BME280;32978;53.586;10.052;2024-03-22T06:34:26;101364.44;;;9.35;100.00
47240;BME280;32978;53.586;10.052;2024-03-22T06:39:22;101355.06;;;9.41;100.00
47240;BME280;32978;53.586;10.052;2024-03-22T06:44:17;101341.28;;;9.52;100.00
47240;BME280;32978;53.586;10.052;2024-03-22T06:49:13;101342.88;;;9.53;100.00
47240;BME280;32978;53.586;10.052;2024-03-22T06:54:08;101315.88;;;9.51;100.00
47240;BME280;32978;53.586;10.052;2024-03-22T06:59:04;101299.56;;;9.65;100.00
47240;BME280;32978;53.586;10.052;2024-03-22T07:03:59;101324.22;;;9.60;100.00
47240;BME280;32978;53.586;10.052;2024-03-22T07:08:55;101313.22;;;9.65;100.00
47240;BME280;32978;53.586;10.052;2024-03-22T07:13:51;101307.47;;;9.66;100.00
47240;BME280;32978;53.586;10.052;2024-03-22T07:18:46;101308.25;;;9.67;100.00
47240;BME280;32978;53.586;10.052;2024-03-22T07:23:44;101300.59;;;9.69;100.00
47240;BME280;32978;53.586;10.052;2024-03-22T07:28:39;101307.00;;;9.78;100.00
47240;BME280;32978;53.586;10.052;2024-03-22T07:33:35;101310.34;;;9.75;100.00
47240;BME280;32978;53.586;10.052;2024-03-22T07:38:30;101304.19;;;9.83;100.00
47240;BME280;32978;53.586;10.052;2024-03-22T07:49:44;101310.97;;;9.86;100.00
47240;BME280;32978;53.586;10.052;2024-03-22T07:54:39;101305.72;;;9.89;100.00
47240;BME280;32978;53.586;10.052;2024-03-22T07:59:35;101311.31;;;9.65;100.00
47240;BME280;32978;53.586;10.052;2024-03-22T08:04:30;101286.97;;;9.50;100.00
47240;BME280;32978;53.586;10.052;2024-03-22T08:09:26;101292.00;;;9.43;100.00
47240;BME280;32978;53.586;10.052;2024-03-22T08:14:22;101271.38;;;9.51;100.00
47240;BME280;32978;53.586;10.052;2024-03-22T08:19:17;101273.47;;;9.59;100.00
47240;BME280;32978;53.586;10.052;2024-03-22T08:24:13;101258.88;;;9.50;100.00
47240;BME280;32978;53.586;10.052;2024-03-22T08:29:08;101250.16;;;9.47;100.00
47240;BME280;32978;53.586;10.052;2024-03-22T08:34:04;101247.94;;;9.50;100.00
47240;BME280;32978;53.586;10.052;2024-03-22T08:39:01;101234.88;;;9.46;100.00
47240;BME280;32978;53.586;10.052;2024-03-22T08:43:56;101230.53;;;9.45;100.00
47240;BME280;32978;53.586;10.052;2024-03-22T08:48:52;101212.75;;;9.48;100.00
47240;BME280;32978;53.586;10.052;2024-03-22T08:53:49;101210.91;;;9.43;100.00
47240;BME280;32978;53.586;10.052;2024-03-22T08:58:45;101218.59;;;9.41;100.00
47240;BME280;32978;53.586;10.052;2024-03-22T09:03:40;101197.34;;;9.38;100.00
47240;BME280;32978;53.586;10.052;2024-03-22T09:08:36;101191.16;;;9.33;100.00
47240;BME280;32978;53.586;10.052;2024-03-22T09:13:31;101169.84;;;9.35;100.00
47240;BME280;32978;53.586;10.052;2024-03-22T09:18:29;101168.22;;;9.34;100.00
47240;BME280;32978;53.586;10.052;2024-03-22T09:23:26;101156.72;;;9.37;100.00
47240;BME280;32978;53.586;10.052;2024-03-22T09:28:22;101142.03;;;9.33;100.00
47240;BME280;32978;53.586;10.052;2024-03-22T09:33:17;101135.69;;;9.37;100.00
47240;BME280;32978;53.586;10.052;2024-03-22T09:38:13;101125.38;;;9.34;100.00
47240;BME280;32978;53.586;10.052;2024-03-22T09:43:12;101127.59;;;9.32;100.00
47240;BME280;32978;53.586;10.052;2024-03-22T09:48:10;101110.03;;;9.38;100.00
47240;BME280;32978;53.586;10.052;2024-03-22T09:53:06;101101.03;;;9.38;100.00
47240;BME280;32978;53.586;10.052;2024-03-22T09:58:03;101109.00;;;9.34;100.00
47240;BME280;32978;53.586;10.052;2024-03-22T10:02:59;101097.88;;;9.31;100.00
47240;BME280;32978;53.586;10.052;2024-03-22T10:07:56;101094.84;;;9.32;100.00
47240;BME280;32978;53.586;10.052;2024-03-22T10:12:51;101064.91;;;9.27;100.00
47240;BME280;32978;53.586;10.052;2024-03-22T10:17:48;101069.75;;;9.30;100.00
47240;BME280;32978;53.586;10.052;2024-03-22T10:22:53;101067.94;;;9.25;100.00
47240;BME280;32978;53.586;10.052;2024-03-22T10:27:50;101068.97;;;9.30;100.00
47240;BME280;32978;53.586;10.052;2024-03-22T10:32:45;101052.41;;;9.26;100.00
47240;BME280;32978;53.586;10.052;2024-03-22T10:37:41;101066.53;;;9.28;100.00
47240;BME280;32978;53.586;10.052;2024-03-22T10:42:39;101049.44;;;9.22;100.00
47240;BME280;32978;53.586;10.052;2024-03-22T10:47:36;101054.81;;;9.27;100.00
47240;BME280;32978;53.586;10.052;2024-03-22T10:52:34;101037.72;;;9.22;100.00
47240;BME280;32978;53.586;10.052;2024-03-22T10:57:31;101030.97;;;9.19;100.00
47240;BME280;32978;53.586;10.052;2024-03-22T11:02:28;101034.78;;;9.18;100.00
47240;BME280;32978;53.586;10.052;2024-03-22T11:07:29;101036.19;;;9.16;100.00
47240;BME280;32978;53.586;10.052;2024-03-22T11:12:25;101030.63;;;9.21;100.00
47240;BME280;32978;53.586;10.052;2024-03-22T11:17:21;101017.63;;;9.18;100.00
47240;BME280;32978;53.586;10.052;2024-03-22T11:22:20;101008.22;;;9.24;100.00
47240;BME280;32978;53.586;10.052;2024-03-22T11:27:15;101008.41;;;9.14;100.00
47240;BME280;32978;53.586;10.052;2024-03-22T11:32:11;100992.03;;;9.14;100.00
47240;BME280;32978;53.586;10.052;2024-03-22T11:37:07;100989.53;;;9.17;100.00
47240;BME280;32978;53.586;10.052;2024-03-22T11:42:06;100992.97;;;9.23;100.00
47240;BME280;32978;53.586;10.052;2024-03-22T11:47:03;100990.13;;;9.28;100.00
47240;BME280;32978;53.586;10.052;2024-03-22T11:52:00;100981.25;;;9.36;100.00
47240;BME280;32978;53.586;10.052;2024-03-22T11:56:56;100974.59;;;9.42;100.00
47240;BME280;32978;53.586;10.052;2024-03-22T12:01:54;100983.25;;;9.44;100.00
47240;BME280;32978;53.586;10.052;2024-03-22T12:06:50;100979.03;;;9.52;100.00
47240;BME280;32978;53.586;10.052;2024-03-22T12:11:45;100981.44;;;9.54;100.00
47240;BME280;32978;53.586;10.052;2024-03-22T12:16:41;100973.75;;;9.56;100.00
47240;BME280;32978;53.586;10.052;2024-03-22T12:21:36;100984.16;;;9.40;100.00
47240;BME280;32978;53.586;10.052;2024-03-22T12:26:32;100983.88;;;9.41;100.00
47240;BME280;32978;53.586;10.052;2024-03-22T12:31:28;100963.47;;;9.25;100.00
47240;BME280;32978;53.586;10.052;2024-03-22T12:36:23;100983.06;;;9.27;100.00
47240;BME280;32978;53.586;10.052;2024-03-22T12:41:19;100974.38;;;9.25;100.00
47240;BME280;32978;53.586;10.052;2024-03-22T12:46:15;100956.97;;;9.21;100.00
47240;BME280;32978;53.586;10.052;2024-03-22T12:51:11;100957.38;;;9.28;100.00
47240;BME280;32978;53.586;10.052;2024-03-22T12:56:06;100956.19;;;9.34;100.00
47240;BME280;32978;53.586;10.052;2024-03-22T13:01:02;100956.47;;;9.46;100.00
47240;BME280;32978;53.586;10.052;2024-03-22T13:05:58;100952.13;;;9.45;100.00
47240;BME280;32978;53.586;10.052;2024-03-22T13:10:54;100956.41;;;9.24;100.00
47240;BME280;32978;53.586;10.052;2024-03-22T13:15:49;100940.03;;;9.10;100.00
47240;BME280;32978;53.586;10.052;2024-03-22T13:20:46;100957.19;;;9.11;100.00
47240;BME280;32978;53.586;10.052;2024-03-22T13:25:42;100938.09;;;9.11;100.00
47240;BME280;32978;53.586;10.052;2024-03-22T13:30:37;100936.56;;;9.04;100.00
47240;BME280;32978;53.586;10.052;2024-03-22T13:35:34;100930.53;;;9.08;100.00
47240;BME280;32978;53.586;10.052;2024-03-22T13:40:29;100942.63;;;9.01;100.00
47240;BME280;32978;53.586;10.052;2024-03-22T13:45:25;100918.78;;;8.93;100.00
47240;BME280;32978;53.586;10.052;2024-03-22T13:50:21;100930.28;;;8.90;100.00
47240;BME280;32978;53.586;10.052;2024-03-22T13:55:17;100924.75;;;8.95;100.00
47240;BME280;32978;53.586;10.052;2024-03-22T14:00:13;100916.56;;;8.95;100.00
47240;BME280;32978;53.586;10.052;2024-03-22T14:05:10;100920.81;;;9.01;100.00
47240;BME280;32978;53.586;10.052;2024-03-22T14:10:07;100912.13;;;8.99;100.00
47240;BME280;32978;53.586;10.052;2024-03-22T14:15:04;100903.72;;;9.10;100.00
47240;BME280;32978;53.586;10.052;2024-03-22T14:20:01;100912.53;;;9.06;100.00
47240;BME280;32978;53.586;10.052;2024-03-22T14:25:01;100917.56;;;8.99;100.00
47240;BME280;32978;53.586;10.052;2024-03-22T14:29:59;100915.97;;;8.84;100.00
47240;BME280;32978;53.586;10.052;2024-03-22T14:34:54;100913.53;;;8.83;100.00
47240;BME280;32978;53.586;10.052;2024-03-22T14:39:50;100918.28;;;8.77;100.00
47240;BME280;32978;53.586;10.052;2024-03-22T14:44:46;100927.31;;;8.59;100.00
47240;BME280;32978;53.586;10.052;2024-03-22T14:49:42;100922.75;;;8.54;100.00
47240;BME280;32978;53.586;10.052;2024-03-22T14:54:37;100939.78;;;8.46;100.00
47240;BME280;32978;53.586;10.052;2024-03-22T14:59:33;100941.03;;;8.35;100.00
47240;BME280;32978;53.586;10.052;2024-03-22T15:04:28;100932.78;;;8.40;100.00
47240;BME280;32978;53.586;10.052;2024-03-22T15:09:24;100940.41;;;8.24;100.00
47240;BME280;32978;53.586;10.052;2024-03-22T15:14:20;100953.28;;;8.18;100.00
47240;BME280;32978;53.586;10.052;2024-03-22T15:19:17;100956.94;;;8.28;100.00
47240;BME280;32978;53.586;10.052;2024-03-22T15:24:12;100945.84;;;8.43;100.00
47240;BME280;32978;53.586;10.052;2024-03-22T15:29:08;100958.72;;;8.56;100.00
47240;BME280;32978;53.586;10.052;2024-03-22T15:34:04;100991.56;;;8.46;100.00
47240;BME280;32978;53.586;10.052;2024-03-22T15:39:00;101027.59;;;8.43;100.00
47240;BME280;32978;53.586;10.052;2024-03-22T15:43:56;101030.31;;;8.43;100.00
47240;BME280;32978;53.586;10.052;2024-03-22T15:48:51;101029.72;;;8.46;100.00
47240;BME280;32978;53.586;10.052;2024-03-22T15:53:47;101036.19;;;8.50;100.00
47240;BME280;32978;53.586;10.052;2024-03-22T15:58:43;101034.66;;;8.44;100.00
47240;BME280;32978;53.586;10.052;2024-03-22T16:03:39;101035.69;;;8.48;100.00
47240;BME280;32978;53.586;10.052;2024-03-22T16:08:35;101031.34;;;8.47;100.00
47240;BME280;32978;53.586;10.052;2024-03-22T16:13:30;101030.16;;;8.53;100.00
47240;BME280;32978;53.586;10.052;2024-03-22T16:18:26;101033.56;;;8.45;100.00
47240;BME280;32978;53.586;10.052;2024-03-22T16:23:21;101031.84;;;8.49;100.00
47240;BME280;32978;53.586;10.052;2024-03-22T16:28:17;101044.50;;;8.40;100.00
47240;BME280;32978;53.586;10.052;2024-03-22T16:33:13;101030.88;;;8.40;100.00
47240;BME280;32978;53.586;10.052;2024-03-22T16:38:08;101035.16;;;8.46;100.00
47240;BME280;32978;53.586;10.052;2024-03-22T16:43:04;101030.06;;;8.39;100.00
47240;BME280;32978;53.586;10.052;2024-03-22T16:47:59;101021.66;;;8.36;100.00
47240;BME280;32978;53.586;10.052;2024-03-22T16:52:55;101027.63;;;8.38;100.00
47240;BME280;32978;53.586;10.052;2024-03-22T16:57:51;101039.72;;;8.32;100.00
47240;BME280;32978;53.586;10.052;2024-03-22T17:02:49;101039.41;;;8.33;100.00
47240;BME280;32978;53.586;10.052;2024-03-22T17:07:46;101040.31;;;8.29;100.00
47240;BME280;32978;53.586;10.052;2024-03-22T17:12:42;101049.56;;;8.28;100.00
47240;BME280;32978;53.586;10.052;2024-03-22T17:17:37;101042.59;;;8.21;100.00
47240;BME280;32978;53.586;10.052;2024-03-22T17:22:33;101036.63;;;8.19;100.00
47240;BME280;32978;53.586;10.052;2024-03-22T17:27:29;101033.59;;;8.21;100.00
47240;BME280;32978;53.586;10.052;2024-03-22T17:32:25;101039.03;;;8.21;100.00
47240;BME280;32978;53.586;10.052;2024-03-22T17:37:21;101034.97;;;8.18;100.00
47240;BME280;32978;53.586;10.052;2024-03-22T17:42:17;101040.00;;;8.11;100.00
47240;BME280;32978;53.586;10.052;2024-03-22T17:47:12;101034.53;;;8.11;100.00
47240;BME280;32978;53.586;10.052;2024-03-22T17:52:08;101030.66;;;8.17;100.00
47240;BME280;32978;53.586;10.052;2024-03-22T17:57:03;101031.22;;;8.14;100.00
47240;BME280;32978;53.586;10.052;2024-03-22T18:01:59;101025.50;;;8.16;100.00
47240;BME280;32978;53.586;10.052;2024-03-22T18:06:54;101025.72;;;8.19;100.00
47240;BME280;32978;53.586;10.052;2024-03-22T18:11:50;101040.88;;;8.26;100.00
47240;BME280;32978;53.586;10.052;2024-03-22T18:16:46;101038.59;;;8.33;100.00
47240;BME280;32978;53.586;10.052;2024-03-22T18:21:41;101028.38;;;8.25;100.00
47240;BME280;32978;53.586;10.052;2024-03-22T18:26:37;101026.16;;;8.27;100.00
47240;BME280;32978;53.586;10.052;2024-03-22T18:31:32;101027.34;;;8.20;100.00
47240;BME280;32978;53.586;10.052;2024-03-22T18:36:28;101033.91;;;8.19;100.00
47240;BME280;32978;53.586;10.052;2024-03-22T18:41:23;101033.91;;;8.19;100.00
47240;BME280;32978;53.586;10.052;2024-03-22T18:46:19;101023.03;;;8.14;100.00
47240;BME280;32978;53.586;10.052;2024-03-22T18:51:15;101023.66;;;8.11;100.00
47240;BME280;32978;53.586;10.052;2024-03-22T18:56:10;101012.75;;;8.11;100.00
47240;BME280;32978;53.586;10.052;2024-03-22T19:01:06;101021.59;;;8.03;100.00
47240;BME280;32978;53.586;10.052;2024-03-22T19:06:02;101016.50;;;7.96;100.00
47240;BME280;32978;53.586;10.052;2024-03-22T19:10:58;101029.59;;;7.94;100.00
47240;BME280;32978;53.586;10.052;2024-03-22T19:15:54;101032.00;;;7.96;100.00
47240;BME280;32978;53.586;10.052;2024-03-22T19:20:50;101015.00;;;7.85;100.00
47240;BME280;32978;53.586;10.052;2024-03-22T19:25:48;101002.72;;;7.88;100.00
47240;BME280;32978;53.586;10.052;2024-03-22T19:30:44;101009.91;;;7.78;100.00
47240;BME280;32978;53.586;10.052;2024-03-22T19:35:40;101004.47;;;7.78;100.00
47240;BME280;32978;53.586;10.052;2024-03-22T19:40:35;101004.25;;;7.75;100.00
47240;BME280;32978;53.586;10.052;2024-03-22T19:45:32;100989.72;;;7.85;100.00
47240;BME280;32978;53.586;10.052;2024-03-22T19:50:27;100979.91;;;7.84;100.00
47240;BME280;32978;53.586;10.052;2024-03-22T19:55:23;100984.91;;;7.76;100.00
47240;BME280;32978;53.586;10.052;2024-03-22T20:00:19;100987.69;;;7.71;100.00
47240;BME280;32978;53.586;10.052;2024-03-22T20:05:15;100992.69;;;7.64;100.00
47240;BME280;32978;53.586;10.052;2024-03-22T20:10:11;100999.88;;;7.55;100.00
47240;BME280;32978;53.586;10.052;2024-03-22T20:15:07;100990.06;;;7.54;100.00
47240;BME280;32978;53.586;10.052;2024-03-22T20:20:04;100997.69;;;7.57;100.00
47240;BME280;32978;53.586;10.052;2024-03-22T20:25:01;101004.50;;;7.54;100.00
47240;BME280;32978;53.586;10.052;2024-03-22T20:29:56;101009.50;;;7.47;100.00
47240;BME280;32978;53.586;10.052;2024-03-22T20:34:52;101015.84;;;7.37;100.00
